createdAt,value
2023-01-13T00:01:13.544Z,0.52
2023-01-13T00:03:40.377Z,0.70
2023-01-13T00:06:08.317Z,0.77
2023-01-13T00:08:35.740Z,0.50
2023-01-13T00:11:02.404Z,0.55
2023-01-13T00:13:29.108Z,0.68
2023-01-13T00:16:00.335Z,0.70
2023-01-13T00:18:27.763Z,0.50
2023-01-13T00:21:02.647Z,0.60
2023-01-13T00:23:30.500Z,0.52
2023-01-13T00:26:02.888Z,0.52
2023-01-13T00:28:29.814Z,0.30
2023-01-13T00:30:58.535Z,0.40
2023-01-13T00:33:25.656Z,0.45
2023-01-13T00:35:59.708Z,0.40
2023-01-13T00:38:26.460Z,0.30
2023-01-13T00:41:10.896Z,0.50
2023-01-13T00:43:38.004Z,0.68
2023-01-13T00:46:10.133Z,0.40
2023-01-13T00:48:37.895Z,0.30
2023-01-13T00:51:05.942Z,0.98
2023-01-13T00:53:38.122Z,0.50
2023-01-13T00:56:10.794Z,0.40
2023-01-13T00:58:37.465Z,0.35
2023-01-13T01:01:07.095Z,0.47
2023-01-13T01:03:34.693Z,0.30
2023-01-13T01:06:12.183Z,0.50
2023-01-13T01:08:39.301Z,0.52
2023-01-13T01:11:21.304Z,0.40
2023-01-13T01:13:48.621Z,0.50
2023-01-13T01:16:17.367Z,0.82
2023-01-13T01:18:46.703Z,0.35
2023-01-13T01:21:14.211Z,0.50
2023-01-13T01:23:41.793Z,0.80
2023-01-13T01:26:29.725Z,0.52
2023-01-13T01:28:56.761Z,0.80
2023-01-13T01:31:31.261Z,0.50
2023-01-13T01:33:58.666Z,0.50
2023-01-13T01:36:30.111Z,0.50
2023-01-13T01:38:58.467Z,0.40
2023-01-13T01:41:28.858Z,0.50
2023-01-13T01:44:15.804Z,0.50
2023-01-13T01:46:44.394Z,0.40
2023-01-13T01:49:17.951Z,0.50
2023-01-13T01:51:52.983Z,0.40
2023-01-13T01:54:27.057Z,0.28
2023-01-13T01:56:54.503Z,0.50
2023-01-13T01:59:21.440Z,0.57
2023-01-13T02:01:49.116Z,0.50
2023-01-13T02:04:24.075Z,0.52
2023-01-13T02:06:51.503Z,0.40
2023-01-13T02:09:19.018Z,0.50
2023-01-13T02:12:04.137Z,0.30
2023-01-13T02:14:31.878Z,0.40
2023-01-13T02:17:16.929Z,0.30
2023-01-13T02:20:02.205Z,0.50
2023-01-13T02:22:51.796Z,0.40
2023-01-13T02:25:27.548Z,0.68
2023-01-13T02:28:00.601Z,0.32
2023-01-13T02:31:01.365Z,0.95
2023-01-13T02:33:41.826Z,0.32
2023-01-13T02:36:31.475Z,0.32
2023-01-13T02:39:04.348Z,0.73
2023-01-13T02:41:58.695Z,0.45
2023-01-13T02:44:33.789Z,0.52
2023-01-13T02:47:03.117Z,1.20
2023-01-13T02:49:35.795Z,0.57
2023-01-13T02:52:11.630Z,0.50
2023-01-13T02:54:42.109Z,0.50
2023-01-13T02:57:11.724Z,0.77
2023-01-13T02:59:40.840Z,0.60
2023-01-13T03:02:12.635Z,0.60
2023-01-13T03:05:05.967Z,0.50
2023-01-13T03:07:45.447Z,0.82
2023-01-13T03:10:54.066Z,0.65
2023-01-13T03:13:42.071Z,0.50
2023-01-13T03:16:11.476Z,0.47
2023-01-13T03:18:45.817Z,0.70
2023-01-13T03:21:12.416Z,0.63
2023-01-13T03:23:54.176Z,0.60
2023-01-13T03:26:48.405Z,0.50
2023-01-13T03:29:38.502Z,0.47
2023-01-13T03:32:15.553Z,0.70
2023-01-13T03:35:06.382Z,0.60
2023-01-13T03:37:40.673Z,0.40
2023-01-13T03:40:17.336Z,0.40
2023-01-13T03:43:08.722Z,0.50
2023-01-13T03:45:38.999Z,0.40
2023-01-13T03:48:19.180Z,0.60
2023-01-13T03:50:51.911Z,0.70
2023-01-13T03:53:29.680Z,0.60
2023-01-13T03:56:01.471Z,0.50
2023-01-13T03:58:36.839Z,1.83
2023-01-13T04:01:45.661Z,0.63
2023-01-13T04:04:19.169Z,0.40
2023-01-13T04:07:20.161Z,0.63
2023-01-13T04:09:54.352Z,0.43
2023-01-13T04:12:51.046Z,1.02
2023-01-13T04:15:21.317Z,0.40
2023-01-13T04:17:48.004Z,0.43
2023-01-13T04:20:14.918Z,0.57
2023-01-13T04:22:41.623Z,0.60
2023-01-13T04:25:09.273Z,0.52
2023-01-13T04:27:35.962Z,0.70
2023-01-13T04:30:02.788Z,0.50
2023-01-13T04:32:29.429Z,0.50
2023-01-13T04:34:56.109Z,0.50
2023-01-13T04:37:22.804Z,0.55
2023-01-13T04:39:49.447Z,0.50
2023-01-13T04:42:16.077Z,0.70
2023-01-13T04:44:42.714Z,0.40
2023-01-13T04:47:09.381Z,0.50
2023-01-13T04:49:36.080Z,0.77
2023-01-13T04:52:03.837Z,1.10
2023-01-13T04:54:30.505Z,0.40
2023-01-13T04:56:57.199Z,0.47
2023-01-13T04:59:23.853Z,0.60
2023-01-13T05:01:50.696Z,1.13
2023-01-13T05:04:17.440Z,0.47
2023-01-13T05:06:44.093Z,0.43
2023-01-13T05:09:12.308Z,0.55
2023-01-13T05:11:57.955Z,0.30
2023-01-13T05:14:43.342Z,0.30
2023-01-13T05:17:19.381Z,0.50
2023-01-13T05:19:46.044Z,0.50
2023-01-13T05:22:31.740Z,0.40
2023-01-13T05:25:17.157Z,0.32
2023-01-13T05:27:43.825Z,0.30
2023-01-13T05:30:11.115Z,0.38
2023-01-13T05:32:37.780Z,0.68
2023-01-13T05:35:04.880Z,0.60
2023-01-13T05:37:31.630Z,0.40
2023-01-13T05:40:16.878Z,0.60
2023-01-13T05:43:02.400Z,0.52
2023-01-13T05:45:31.561Z,0.50
2023-01-13T05:47:58.720Z,0.28
2023-01-13T05:50:25.405Z,0.40
2023-01-13T05:52:52.061Z,0.30
2023-01-13T05:55:18.748Z,1.13
2023-01-13T05:57:45.535Z,0.40
2023-01-13T06:00:12.645Z,0.68
2023-01-13T06:02:39.383Z,0.40
2023-01-13T06:05:06.220Z,0.30
2023-01-13T06:07:32.858Z,0.30
2023-01-13T06:09:59.539Z,0.40
2023-01-13T06:12:26.208Z,0.30
2023-01-13T06:14:52.825Z,0.30
2023-01-13T06:17:19.428Z,0.30
2023-01-13T06:19:46.081Z,0.30
2023-01-13T06:22:23.854Z,0.40
2023-01-13T06:24:53.519Z,0.38
2023-01-13T06:27:21.995Z,0.35
2023-01-13T06:29:48.870Z,0.35
2023-01-13T06:32:19.652Z,0.30
2023-01-13T06:34:51.301Z,0.32
2023-01-13T06:37:21.595Z,0.40
2023-01-13T06:39:49.216Z,0.20
2023-01-13T06:42:34.377Z,0.35
2023-01-13T06:45:01.050Z,0.20
2023-01-13T06:47:27.879Z,0.38
2023-01-13T06:49:54.610Z,0.40
2023-01-13T06:52:21.613Z,0.40
2023-01-13T06:54:48.310Z,0.40
2023-01-13T06:57:14.971Z,0.40
2023-01-13T06:59:41.667Z,0.20
2023-01-13T07:02:08.502Z,0.30
2023-01-13T07:04:35.231Z,0.30
2023-01-13T07:07:01.888Z,0.38
2023-01-13T07:09:28.557Z,0.30
2023-01-13T07:11:55.231Z,0.40
2023-01-13T07:14:40.590Z,0.52
2023-01-13T07:17:07.249Z,0.20
2023-01-13T07:19:33.929Z,0.47
2023-01-13T07:22:00.653Z,0.20
2023-01-13T07:24:27.335Z,0.35
2023-01-13T07:26:54.020Z,0.35
2023-01-13T07:29:20.835Z,0.32
2023-01-13T07:31:50.103Z,0.50
2023-01-13T07:34:17.067Z,0.30
2023-01-13T07:36:43.692Z,0.95
2023-01-13T07:39:10.367Z,1.00
2023-01-13T07:41:55.494Z,0.45
2023-01-13T07:44:22.208Z,0.25
2023-01-13T07:46:48.878Z,0.20
2023-01-13T07:49:15.646Z,0.40
2023-01-13T07:51:42.359Z,0.40
2023-01-13T07:54:09.005Z,0.82
2023-01-13T07:56:35.732Z,0.80
2023-01-13T07:59:02.514Z,0.65
2023-01-13T08:01:31.763Z,0.88
2023-01-13T08:03:59.011Z,1.95
2023-01-13T08:06:26.640Z,0.60
2023-01-13T08:08:53.555Z,1.70
2023-01-13T08:11:23.277Z,0.80
2023-01-13T08:13:50.350Z,0.98
2023-01-13T08:16:17.529Z,0.73
2023-01-13T08:18:44.305Z,0.50
2023-01-13T08:21:15.017Z,0.40
2023-01-13T08:23:43.058Z,0.60
2023-01-13T08:26:15.246Z,0.50
2023-01-13T08:28:41.959Z,1.17
2023-01-13T08:31:14.063Z,0.43
2023-01-13T08:33:40.834Z,0.57
2023-01-13T08:36:10.021Z,0.30
2023-01-13T08:38:37.356Z,0.60
2023-01-13T08:41:11.878Z,0.65
2023-01-13T08:43:39.000Z,0.75
2023-01-13T08:46:06.018Z,0.50
2023-01-13T08:48:33.331Z,0.32
2023-01-13T08:51:05.768Z,0.52
2023-01-13T08:53:32.613Z,0.90
2023-01-13T08:55:59.699Z,0.60
2023-01-13T08:58:26.671Z,0.50
2023-01-13T09:00:53.435Z,0.65
2023-01-13T09:03:20.146Z,0.55
2023-01-13T09:05:46.814Z,1.60
2023-01-13T09:08:13.572Z,2.30
2023-01-13T09:10:40.467Z,1.30
2023-01-13T09:13:11.656Z,0.52
2023-01-13T09:15:43.876Z,0.40
2023-01-13T09:18:11.474Z,0.80
2023-01-13T09:20:38.626Z,0.60
2023-01-13T09:23:08.818Z,0.70
2023-01-13T09:25:36.877Z,0.90
2023-01-13T09:28:05.052Z,0.90
2023-01-13T09:30:31.995Z,0.40
2023-01-13T09:33:18.438Z,0.73
2023-01-13T09:35:45.114Z,0.85
2023-01-13T09:38:11.899Z,0.90
2023-01-13T09:40:41.336Z,1.17
2023-01-13T09:43:53.819Z,1.00
2023-01-13T09:46:44.318Z,1.00
2023-01-13T09:49:20.850Z,0.75
2023-01-13T09:51:55.393Z,0.90
2023-01-13T09:54:28.265Z,0.60
2023-01-13T09:56:54.881Z,1.02
2023-01-13T09:59:21.625Z,0.70
2023-01-13T10:02:11.786Z,0.70
2023-01-13T10:04:38.499Z,1.00
2023-01-13T10:07:10.142Z,0.88
2023-01-13T10:09:49.581Z,0.85
2023-01-13T10:12:43.028Z,0.70
2023-01-13T10:15:23.248Z,0.70
2023-01-13T10:18:05.758Z,0.77
2023-01-13T10:23:38.789Z,0.90
2023-01-13T10:26:34.947Z,0.68
2023-01-13T10:29:01.648Z,0.80
2023-01-13T10:31:28.531Z,0.68
2023-01-13T10:33:59.946Z,1.10
2023-01-13T10:36:27.003Z,1.03
2023-01-13T10:39:07.365Z,1.35
2023-01-13T10:41:36.080Z,0.82
2023-01-13T10:44:14.781Z,0.73
2023-01-13T10:46:56.166Z,0.70
2023-01-13T10:49:36.326Z,1.27
2023-01-13T10:52:23.614Z,1.00
2023-01-13T10:54:53.149Z,1.23
2023-01-13T10:57:22.698Z,1.08
2023-01-13T10:59:51.055Z,1.42
2023-01-13T11:02:26.456Z,1.30
2023-01-13T11:04:53.525Z,1.48
2023-01-13T11:07:28.281Z,2.13
2023-01-13T11:10:31.293Z,1.30
2023-01-13T11:15:36.460Z,1.25
2023-01-13T11:18:11.399Z,1.33
2023-01-13T11:20:42.045Z,1.10
2023-01-13T11:23:17.491Z,1.42
2023-01-13T11:25:50.335Z,1.08
2023-01-13T11:28:17.002Z,1.05
2023-01-13T11:31:11.076Z,1.05
2023-01-13T11:33:46.849Z,1.27
2023-01-13T11:36:38.986Z,1.45
2023-01-13T11:39:27.611Z,1.15
2023-01-13T11:42:19.882Z,0.85
2023-01-13T11:44:49.567Z,1.90
2023-01-13T11:47:21.012Z,1.10
2023-01-13T11:49:48.627Z,1.80
2023-01-13T11:52:34.194Z,1.92
2023-01-13T11:55:14.644Z,1.10
2023-01-13T11:58:13.655Z,1.02
2023-01-13T12:01:01.412Z,0.90
2023-01-13T12:03:28.191Z,1.10
2023-01-13T12:06:24.764Z,0.82
2023-01-13T12:09:11.788Z,1.38
2023-01-13T12:12:15.521Z,1.38
2023-01-13T12:15:02.962Z,1.85
2023-01-13T12:18:04.997Z,1.23
2023-01-13T12:20:55.935Z,1.10
2023-01-13T12:23:32.656Z,1.30
2023-01-13T12:26:06.174Z,3.10
2023-01-13T12:28:53.304Z,1.05
2023-01-13T12:31:21.005Z,1.50
2023-01-13T12:34:00.436Z,1.60
2023-01-13T12:36:45.002Z,1.58
2023-01-13T12:39:29.855Z,2.03
2023-01-13T12:42:18.474Z,1.65
2023-01-13T12:45:14.420Z,2.88
2023-01-13T12:47:46.155Z,2.13
2023-01-13T12:50:21.966Z,1.63
2023-01-13T12:53:27.531Z,1.52
2023-01-13T12:55:54.317Z,1.45
2023-01-13T12:58:28.898Z,1.95
2023-01-13T13:01:06.692Z,1.40
2023-01-13T13:03:35.318Z,2.13
2023-01-13T13:06:13.515Z,2.45
2023-01-13T13:09:31.474Z,1.50
2023-01-13T13:11:58.140Z,1.92
2023-01-13T13:14:37.063Z,1.95
2023-01-13T13:17:19.416Z,1.45
2023-01-13T13:19:48.100Z,1.23
2023-01-13T13:22:16.688Z,3.05
2023-01-13T13:25:03.618Z,2.05
2023-01-13T13:27:45.587Z,1.63
2023-01-13T13:30:15.397Z,2.13
2023-01-13T13:33:00.840Z,1.40
2023-01-13T13:36:05.369Z,1.25
2023-01-13T13:39:29.262Z,1.42
2023-01-13T13:42:31.316Z,0.90
2023-01-13T13:45:18.218Z,1.13
2023-01-13T13:47:45.229Z,0.88
2023-01-13T13:50:20.255Z,1.05
2023-01-13T13:52:55.155Z,0.80
2023-01-13T13:55:25.592Z,0.93
2023-01-13T13:57:54.638Z,0.77
2023-01-13T14:00:23.456Z,0.90
2023-01-13T14:03:00.337Z,1.48
2023-01-13T14:05:31.812Z,3.10
2023-01-13T14:08:01.567Z,1.10
2023-01-13T14:10:36.247Z,1.23
2023-01-13T14:13:33.249Z,0.52
2023-01-13T14:16:06.980Z,0.85
2023-01-13T14:18:42.520Z,1.23
2023-01-13T14:21:18.269Z,0.80
2023-01-13T14:24:15.096Z,2.10
2023-01-13T14:26:41.778Z,1.75
2023-01-13T14:29:16.343Z,1.75
2023-01-13T14:31:44.172Z,3.58
2023-01-13T14:34:32.044Z,2.60
2023-01-13T14:36:59.516Z,1.40
2023-01-13T14:39:35.131Z,1.50
2023-01-13T14:42:02.044Z,2.33
2023-01-13T14:44:35.846Z,1.13
2023-01-13T14:47:17.236Z,1.92
2023-01-13T14:49:51.908Z,1.35
2023-01-13T14:52:23.982Z,1.55
2023-01-13T14:55:19.650Z,3.22
2023-01-13T14:57:47.038Z,1.63
2023-01-13T15:00:13.638Z,3.22
2023-01-13T15:02:40.275Z,1.55
2023-01-13T15:05:19.246Z,2.97
2023-01-13T15:08:11.572Z,1.50
2023-01-13T15:10:49.014Z,1.52
2023-01-13T15:13:52.861Z,1.67
2023-01-13T15:16:28.071Z,1.42
2023-01-13T15:18:56.015Z,1.50
2023-01-13T15:21:23.320Z,1.58
2023-01-13T15:23:50.162Z,2.03
2023-01-13T15:26:19.844Z,1.65
2023-01-13T15:28:46.924Z,1.50
2023-01-13T15:31:13.850Z,1.70
2023-01-13T15:33:40.665Z,1.60
2023-01-13T15:36:20.751Z,1.92
2023-01-13T15:38:47.438Z,2.63
2023-01-13T15:41:14.113Z,3.65
2023-01-13T15:43:59.364Z,1.92
2023-01-13T15:46:38.423Z,1.80
2023-01-13T15:49:26.742Z,1.85
2023-01-13T15:51:53.651Z,2.88
2023-01-13T15:54:24.557Z,2.60
2023-01-13T15:56:52.203Z,1.90
2023-01-13T15:59:26.247Z,1.48
2023-01-13T16:01:52.940Z,2.25
2023-01-13T16:04:19.674Z,2.53
2023-01-13T16:06:47.401Z,2.60
2023-01-13T16:09:14.863Z,2.30
2023-01-13T16:11:41.607Z,3.78
2023-01-13T16:14:08.331Z,3.00
2023-01-13T16:16:36.101Z,3.10
2023-01-13T16:19:02.869Z,2.22
2023-01-13T16:21:29.613Z,2.25
2023-01-13T16:23:56.305Z,2.00
2023-01-13T16:26:25.618Z,1.92
2023-01-13T16:28:54.614Z,2.17
2023-01-13T16:31:33.325Z,1.83
2023-01-13T16:34:02.080Z,1.52
2023-01-13T16:36:30.794Z,1.65
2023-01-13T16:38:57.486Z,1.95
2023-01-13T16:41:27.255Z,2.10
2023-01-13T16:43:54.154Z,2.67
2023-01-13T16:46:20.890Z,2.17
2023-01-13T16:48:48.295Z,2.55
2023-01-13T16:51:15.296Z,2.05
2023-01-13T16:53:42.193Z,1.80
2023-01-13T16:56:28.872Z,2.47
2023-01-13T16:58:58.661Z,3.03
2023-01-13T17:01:28.298Z,3.15
2023-01-13T17:03:56.191Z,6.47
2023-01-13T17:06:28.828Z,2.60
2023-01-13T17:09:02.624Z,3.47
2023-01-13T17:11:29.613Z,1.92
2023-01-13T17:13:56.305Z,2.88
2023-01-13T17:16:24.427Z,3.00
2023-01-13T17:18:51.138Z,2.00
2023-01-13T17:21:18.304Z,3.05
2023-01-13T17:23:45.687Z,2.28
2023-01-13T17:26:24.789Z,2.53
2023-01-13T17:28:51.480Z,1.52
2023-01-13T17:31:18.099Z,1.92
2023-01-13T17:33:44.752Z,1.70
2023-01-13T17:36:11.452Z,1.50
2023-01-13T17:38:38.145Z,1.90
2023-01-13T17:41:05.445Z,2.72
2023-01-13T17:43:32.698Z,2.95
2023-01-13T17:45:59.656Z,3.40
2023-01-13T17:48:26.848Z,1.65
2023-01-13T17:50:53.880Z,2.33
2023-01-13T17:53:20.926Z,2.25
2023-01-13T17:55:55.134Z,1.83
2023-01-13T17:58:22.683Z,1.77
2023-01-13T18:00:49.659Z,3.70
2023-01-13T18:03:17.658Z,1.55
2023-01-13T18:05:45.216Z,3.28
2023-01-13T18:08:11.983Z,1.85
2023-01-13T18:10:38.708Z,1.73
2023-01-13T18:13:06.422Z,2.35
2023-01-13T18:15:33.162Z,2.55
2023-01-13T18:17:59.807Z,1.88
2023-01-13T18:20:44.948Z,1.60
2023-01-13T18:23:37.704Z,1.65
2023-01-13T18:29:05.630Z,2.00
2023-01-13T18:31:32.571Z,1.42
2023-01-13T18:33:59.290Z,1.92
2023-01-13T18:36:26.025Z,1.88
2023-01-13T18:38:52.762Z,1.48
2023-01-13T18:41:38.538Z,2.45
2023-01-13T18:44:05.427Z,1.48
2023-01-13T18:46:32.547Z,2.00
2023-01-13T18:48:59.279Z,2.22
2023-01-13T18:51:26.108Z,3.10
2023-01-13T18:53:53.852Z,2.20
2023-01-13T18:56:21.036Z,3.45
2023-01-13T18:58:54.147Z,1.90
2023-01-13T19:01:24.428Z,1.33
2023-01-13T19:03:59.454Z,2.40
2023-01-13T19:06:27.746Z,2.15
2023-01-13T19:08:55.779Z,2.50
2023-01-13T19:11:24.420Z,4.03
2023-01-13T19:13:52.020Z,2.00
2023-01-13T19:16:23.766Z,1.52
2023-01-13T19:18:50.517Z,3.35
2023-01-13T19:21:17.174Z,1.90
2023-01-13T19:23:43.873Z,2.67
2023-01-13T19:26:12.131Z,1.92
2023-01-13T19:28:42.893Z,2.15
2023-01-13T19:31:11.188Z,2.15
2023-01-13T19:33:39.912Z,1.52
2023-01-13T19:36:09.566Z,1.38
2023-01-13T19:38:37.526Z,2.17
2023-01-13T19:41:11.198Z,3.47
2023-01-13T19:43:56.570Z,1.80
2023-01-13T19:46:26.176Z,1.80
2023-01-13T19:48:52.991Z,2.05
2023-01-13T19:51:19.634Z,1.50
2023-01-13T19:53:46.842Z,1.75
2023-01-13T19:56:15.241Z,1.90
2023-01-13T19:58:42.298Z,2.08
2023-01-13T20:01:16.177Z,2.45
2023-01-13T20:03:44.161Z,2.05
2023-01-13T20:06:10.894Z,2.20
2023-01-13T20:08:37.827Z,2.38
2023-01-13T20:11:22.881Z,1.92
2023-01-13T20:13:52.055Z,1.50
2023-01-13T20:16:18.871Z,2.42
2023-01-13T20:18:49.830Z,2.35
2023-01-13T20:21:16.582Z,2.00
2023-01-13T20:23:44.281Z,2.17
2023-01-13T20:26:11.077Z,1.80
2023-01-13T20:28:39.464Z,2.05
2023-01-13T20:31:09.955Z,2.20
2023-01-13T20:33:38.746Z,1.83
2023-01-13T20:36:06.370Z,2.33
2023-01-13T20:38:37.588Z,2.55
2023-01-13T20:41:26.126Z,2.08
2023-01-13T20:43:53.573Z,2.20
2023-01-13T20:46:21.261Z,1.38
2023-01-13T20:48:48.636Z,1.65
2023-01-13T20:51:15.363Z,2.08
2023-01-13T20:53:42.119Z,2.03
2023-01-13T20:56:09.021Z,2.05
2023-01-13T20:58:38.177Z,2.00
2023-01-13T21:01:05.384Z,1.65
2023-01-13T21:03:32.175Z,1.90
2023-01-13T21:05:58.996Z,1.92
2023-01-13T21:08:25.887Z,2.20
2023-01-13T21:10:59.812Z,1.80
2023-01-13T21:13:45.506Z,2.22
2023-01-13T21:16:12.647Z,1.55
2023-01-13T21:18:58.013Z,2.35
2023-01-13T21:21:24.691Z,2.10
2023-01-13T21:23:53.073Z,1.88
2023-01-13T21:26:21.974Z,2.00
2023-01-13T21:28:49.700Z,1.33
2023-01-13T21:31:17.321Z,1.67
2023-01-13T21:33:47.463Z,1.38
2023-01-13T21:36:15.133Z,1.60
2023-01-13T21:38:41.849Z,1.65
2023-01-13T21:41:09.550Z,2.53
2023-01-13T21:43:56.161Z,1.98
2023-01-13T21:46:42.670Z,2.00
2023-01-13T21:49:09.561Z,1.65
2023-01-13T21:51:36.598Z,1.30
2023-01-13T21:54:03.400Z,1.73
2023-01-13T21:56:30.036Z,2.40
2023-01-13T21:58:56.669Z,1.73
2023-01-13T22:01:23.438Z,2.70
2023-01-13T22:04:08.675Z,3.40
2023-01-13T22:06:35.408Z,2.38
2023-01-13T22:09:02.143Z,2.05
2023-01-13T22:11:29.125Z,3.75
2023-01-13T22:14:13.489Z,2.13
2023-01-13T22:16:48.968Z,2.65
2023-01-13T22:19:18.141Z,2.05
2023-01-13T22:21:44.932Z,2.53
2023-01-13T22:24:11.850Z,3.65
2023-01-13T22:26:38.588Z,2.85
2023-01-13T22:29:05.353Z,2.50
2023-01-13T22:31:32.077Z,2.28
2023-01-13T22:33:58.762Z,4.53
2023-01-13T22:36:26.129Z,2.45
2023-01-13T22:51:47.347Z,3.15
2023-01-13T22:54:14.230Z,2.17
2023-01-13T22:56:41.468Z,2.42
2023-01-13T22:59:10.810Z,5.68
2023-01-13T23:01:37.535Z,1.80
2023-01-13T23:04:04.823Z,3.03
2023-01-13T23:06:33.339Z,2.78
2023-01-13T23:09:01.505Z,4.05
2023-01-13T23:11:29.523Z,2.03
2023-01-13T23:14:14.417Z,2.97
2023-01-13T23:16:41.803Z,2.92
2023-01-13T23:19:10.397Z,2.00
2023-01-13T23:21:38.118Z,1.98
2023-01-13T23:24:05.956Z,1.95
2023-01-13T23:26:34.181Z,2.72
2023-01-13T23:29:02.915Z,2.72
2023-01-13T23:31:30.134Z,3.67
2023-01-13T23:33:57.266Z,2.50
2023-01-13T23:36:25.565Z,2.42
2023-01-13T23:38:52.874Z,3.35
2023-01-13T23:41:24.884Z,2.80
2023-01-13T23:43:58.604Z,2.05
2023-01-13T23:46:26.432Z,1.50
2023-01-13T23:48:55.043Z,2.40
2023-01-13T23:51:22.759Z,2.90
2023-01-13T23:53:50.938Z,2.63
2023-01-13T23:56:20.883Z,2.55
2023-01-13T23:58:47.995Z,3.45
